createdAt,value
2019-01-02T00:00:22.640Z,5.20
2019-01-02T00:01:22.575Z,5.15
2019-01-02T00:02:22.472Z,5.20
2019-01-02T00:03:22.383Z,5.32
2019-01-02T00:04:22.292Z,5.22
2019-01-02T00:05:22.213Z,5.29
2019-01-02T00:06:22.144Z,5.33
2019-01-02T00:07:22.032Z,5.24
2019-01-02T00:08:21.952Z,5.24
2019-01-02T00:09:21.863Z,5.33
2019-01-02T00:10:21.776Z,5.33
2019-01-02T00:11:21.693Z,5.37
2019-01-02T00:12:21.613Z,5.30
2019-01-02T00:13:21.516Z,5.32
2019-01-02T00:14:21.429Z,5.29
2019-01-02T00:15:21.337Z,5.33
2019-01-02T00:16:21.253Z,5.32
2019-01-02T00:17:21.193Z,5.35
2019-01-02T00:18:21.081Z,5.42
2019-01-02T00:19:21.012Z,5.49
2019-01-02T00:20:20.907Z,5.45
2019-01-02T00:21:20.815Z,5.49
2019-01-02T00:22:20.749Z,5.47
2019-01-02T00:23:20.652Z,5.51
2019-01-02T00:24:20.560Z,5.51
2019-01-02T00:25:20.473Z,5.47
2019-01-02T00:26:20.397Z,5.48
2019-01-02T00:27:20.318Z,5.49
2019-01-02T00:28:20.224Z,5.45
2019-01-02T00:29:20.126Z,5.42
2019-01-02T00:30:20.049Z,5.45
2019-01-02T00:31:19.955Z,5.48
2019-01-02T00:32:19.884Z,5.51
2019-01-02T00:33:19.780Z,5.48
2019-01-02T00:34:19.702Z,5.42
2019-01-02T00:35:19.605Z,5.52
2019-01-02T00:36:19.526Z,5.51
2019-01-02T00:37:19.475Z,5.62
2019-01-02T00:38:19.360Z,5.62
2019-01-02T00:39:19.261Z,5.63
2019-01-02T00:40:19.185Z,5.62
2019-01-02T00:41:19.092Z,5.60
2019-01-02T00:42:19.005Z,5.63
2019-01-02T00:43:18.934Z,5.55
2019-01-02T00:44:18.833Z,5.51
2019-01-02T00:45:22.302Z,5.66
2019-01-02T00:46:18.654Z,5.58
2019-01-02T00:47:18.577Z,5.58
2019-01-02T00:48:18.497Z,5.58
2019-01-02T00:49:18.396Z,5.49
2019-01-02T00:50:18.315Z,5.59
2019-01-02T00:51:18.222Z,5.75
2019-01-02T00:52:18.143Z,5.69
2019-01-02T00:53:18.074Z,5.69
2019-01-02T00:54:17.969Z,5.69
2019-01-02T00:55:17.876Z,5.65
2019-01-02T00:56:17.799Z,5.66
2019-01-02T00:57:17.712Z,5.66
2019-01-02T00:58:17.639Z,5.65
2019-01-02T00:59:17.534Z,5.69
2019-01-02T01:00:17.454Z,5.73
2019-01-02T01:01:17.369Z,5.65
2019-01-02T01:02:17.283Z,5.75
2019-01-02T01:03:17.201Z,5.75
2019-01-02T01:04:17.112Z,5.84
2019-01-02T01:05:17.021Z,5.85
2019-01-02T01:06:16.962Z,5.75
2019-01-02T01:07:16.839Z,5.70
2019-01-02T01:08:16.785Z,5.75
2019-01-02T01:09:16.667Z,5.65
2019-01-02T01:10:16.586Z,5.80
2019-01-02T01:11:16.498Z,5.87
2019-01-02T01:12:16.423Z,5.90
2019-01-02T01:13:16.340Z,5.93
2019-01-02T01:14:16.263Z,5.92
2019-01-02T01:15:16.147Z,5.87
2019-01-02T01:16:16.076Z,5.87
2019-01-02T01:17:15.975Z,5.77
2019-01-02T01:18:15.898Z,5.80
2019-01-02T01:19:15.817Z,5.85
2019-01-02T01:20:15.722Z,5.78
2019-01-02T01:21:15.639Z,5.81
2019-01-02T01:22:15.552Z,5.77
2019-01-02T01:23:15.459Z,5.83
2019-01-02T01:24:15.394Z,5.81
2019-01-02T01:25:15.285Z,5.80
2019-01-02T01:26:15.199Z,5.77
2019-01-02T01:27:15.120Z,5.85
2019-01-02T01:28:15.031Z,5.75
2019-01-02T01:29:14.957Z,5.78
2019-01-02T01:30:14.867Z,5.81
2019-01-02T01:31:14.768Z,5.77
2019-01-02T01:32:14.688Z,5.77
2019-01-02T01:33:14.595Z,5.90
2019-01-02T01:34:14.527Z,5.88
2019-01-02T01:35:14.424Z,5.93
2019-01-02T01:36:14.349Z,5.92
2019-01-02T01:37:14.250Z,5.90
2019-01-02T01:38:14.171Z,5.93
2019-01-02T01:39:14.091Z,5.88
2019-01-02T01:40:13.995Z,5.95
2019-01-02T01:41:13.907Z,5.85
2019-01-02T01:42:13.826Z,5.88
2019-01-02T01:43:13.729Z,5.92
2019-01-02T01:44:13.673Z,5.85
2019-01-02T01:45:13.563Z,5.93
2019-01-02T01:46:13.480Z,5.87
2019-01-02T01:47:13.393Z,5.87
2019-01-02T01:48:13.309Z,5.83
2019-01-02T01:49:13.231Z,5.90
2019-01-02T01:50:13.140Z,5.90
2019-01-02T01:51:13.043Z,5.87
2019-01-02T01:52:12.961Z,5.93
2019-01-02T01:53:12.879Z,5.90
2019-01-02T01:54:12.931Z,5.85
2019-01-02T01:55:12.699Z,5.90
2019-01-02T01:56:12.626Z,5.87
2019-01-02T01:57:12.531Z,5.92
2019-01-02T01:58:12.440Z,5.90
2019-01-02T01:59:12.361Z,5.90
2019-01-02T02:00:12.290Z,5.93
2019-01-02T02:01:12.182Z,5.90
2019-01-02T02:02:12.103Z,5.88
2019-01-02T02:03:12.010Z,5.88
2019-01-02T02:04:11.930Z,5.83
2019-01-02T02:05:11.850Z,5.81
2019-01-02T02:06:11.756Z,5.80
2019-01-02T02:07:11.668Z,5.74
2019-01-02T02:08:11.583Z,5.85
2019-01-02T02:09:11.494Z,5.69
2019-01-02T02:10:11.431Z,5.73
2019-01-02T02:11:11.326Z,5.63
2019-01-02T02:12:11.237Z,5.66
2019-01-02T02:13:11.154Z,5.73
2019-01-02T02:14:11.061Z,5.70
2019-01-02T02:15:10.990Z,5.69
2019-01-02T02:16:10.915Z,5.73
2019-01-02T02:17:10.809Z,5.62
2019-01-02T02:18:10.733Z,5.59
2019-01-02T02:19:10.657Z,5.59
2019-01-02T02:20:10.843Z,5.60
2019-01-02T02:21:10.473Z,5.60
2019-01-02T02:22:10.381Z,5.60
2019-01-02T02:23:10.284Z,5.63
2019-01-02T02:24:10.208Z,5.55
2019-01-02T02:25:10.113Z,5.70
2019-01-02T02:26:10.047Z,5.63
2019-01-02T02:27:09.938Z,5.66
2019-01-02T02:28:09.860Z,5.62
2019-01-02T02:29:09.766Z,5.70
2019-01-02T02:30:09.688Z,5.70
2019-01-02T02:31:09.611Z,5.60
2019-01-02T02:32:09.513Z,5.58
2019-01-02T02:33:09.428Z,5.67
2019-01-02T02:34:09.344Z,5.56
2019-01-02T02:35:09.248Z,5.66
2019-01-02T02:36:09.182Z,5.70
2019-01-02T02:37:09.085Z,5.60
2019-01-02T02:38:08.988Z,5.62
2019-01-02T02:39:08.904Z,5.62
2019-01-02T02:40:08.834Z,5.62
2019-01-02T02:41:08.749Z,5.66
2019-01-02T02:42:08.646Z,5.66
2019-01-02T02:43:08.570Z,5.65
2019-01-02T02:44:08.477Z,5.74
2019-01-02T02:45:08.439Z,5.63
2019-01-02T02:46:08.320Z,5.60
2019-01-02T02:47:08.212Z,5.60
2019-01-02T02:48:08.125Z,5.73
2019-01-02T02:49:08.044Z,5.51
2019-01-02T02:50:07.952Z,5.60
2019-01-02T02:51:07.886Z,5.56
2019-01-02T02:52:07.785Z,5.60
2019-01-02T02:53:07.698Z,5.58
2019-01-02T02:54:07.612Z,5.51
2019-01-02T02:55:07.521Z,5.44
2019-01-02T02:56:07.474Z,5.44
2019-01-02T02:57:07.355Z,5.44
2019-01-02T02:58:07.262Z,5.44
2019-01-02T02:59:07.176Z,5.48
2019-01-02T03:00:07.094Z,5.51
2019-01-02T03:01:07.006Z,5.49
2019-01-02T03:02:06.935Z,5.62
2019-01-02T03:03:06.842Z,5.63
2019-01-02T03:04:06.741Z,5.55
2019-01-02T03:05:06.665Z,5.65
2019-01-02T03:06:06.568Z,5.56
2019-01-02T03:07:06.498Z,5.70
2019-01-02T03:08:06.408Z,5.56
2019-01-02T03:09:06.326Z,5.66
2019-01-02T03:10:07.373Z,5.60
2019-01-02T03:11:06.143Z,5.66
2019-01-02T03:12:06.066Z,5.66
2019-01-02T03:13:05.976Z,5.52
2019-01-02T03:14:05.881Z,5.62
2019-01-02T03:15:05.795Z,5.62
2019-01-02T03:16:05.710Z,5.62
2019-01-02T03:17:05.635Z,5.59
2019-01-02T03:18:05.541Z,5.59
2019-01-02T03:19:05.453Z,5.60
2019-01-02T03:20:05.359Z,5.58
2019-01-02T03:21:05.276Z,5.59
2019-01-02T03:22:05.334Z,5.65
2019-01-02T03:23:05.106Z,5.58
2019-01-02T03:24:05.025Z,5.55
2019-01-02T03:25:04.935Z,5.56
2019-01-02T03:26:04.854Z,5.52
2019-01-02T03:27:04.758Z,5.63
2019-01-02T03:28:04.698Z,5.62
2019-01-02T03:29:04.593Z,5.62
2019-01-02T03:30:04.502Z,5.65
2019-01-02T03:31:04.414Z,5.73
2019-01-02T03:32:04.345Z,5.69
2019-01-02T03:33:04.268Z,5.63
2019-01-02T03:34:04.161Z,5.78
2019-01-02T03:35:04.068Z,5.74
2019-01-02T03:36:03.988Z,5.77
2019-01-02T03:37:03.897Z,5.67
2019-01-02T03:38:03.827Z,5.67
2019-01-02T03:39:03.723Z,5.69
2019-01-02T03:40:03.639Z,5.66
2019-01-02T03:41:03.550Z,5.67
2019-01-02T03:42:03.481Z,5.73
2019-01-02T03:43:03.394Z,5.69
2019-01-02T03:44:03.293Z,5.65
2019-01-02T03:45:03.210Z,5.67
2019-01-02T03:46:03.117Z,5.66
2019-01-02T03:47:03.032Z,5.67
2019-01-02T03:48:02.976Z,5.60
2019-01-02T03:49:02.868Z,5.74
2019-01-02T03:50:02.773Z,5.69
2019-01-02T03:51:02.695Z,5.65
2019-01-02T03:52:02.602Z,5.75
2019-01-02T03:53:02.521Z,5.74
2019-01-02T03:54:02.444Z,5.77
2019-01-02T03:55:02.351Z,5.74
2019-01-02T03:56:02.257Z,5.78
2019-01-02T03:57:02.187Z,5.77
2019-01-02T03:58:02.082Z,5.85
2019-01-02T03:59:02.017Z,5.83
2019-01-02T04:00:01.913Z,5.78
2019-01-02T04:01:01.834Z,5.78
2019-01-02T04:02:01.743Z,5.80
2019-01-02T04:03:01.651Z,5.84
2019-01-02T04:04:01.596Z,5.74
2019-01-02T04:05:01.488Z,5.75
2019-01-02T04:06:01.395Z,5.81
2019-01-02T04:07:01.308Z,5.75
2019-01-02T04:08:01.229Z,5.78
2019-01-02T04:09:01.152Z,5.77
2019-01-02T04:10:01.053Z,5.84
2019-01-02T04:11:00.967Z,5.80
2019-01-02T04:12:00.876Z,5.78
2019-01-02T04:13:00.810Z,5.73
2019-01-02T04:14:00.716Z,5.85
2019-01-02T04:15:00.628Z,5.75
2019-01-02T04:16:00.533Z,5.73
2019-01-02T04:17:00.448Z,5.84
2019-01-02T04:18:00.365Z,5.75
2019-01-02T04:19:00.319Z,5.75
2019-01-02T04:20:00.205Z,5.80
2019-01-02T04:21:00.110Z,5.80
2019-01-02T04:22:00.013Z,5.77
2019-01-02T04:22:59.937Z,5.85
2019-01-02T04:23:59.846Z,5.78
2019-01-02T04:24:59.781Z,5.81
2019-01-02T04:25:59.679Z,5.84
2019-01-02T04:26:59.594Z,5.92
2019-01-02T04:27:59.502Z,5.83
2019-01-02T04:29:00.426Z,5.77
2019-01-02T04:29:59.489Z,5.78
2019-01-02T04:30:59.245Z,5.73
2019-01-02T04:31:59.159Z,5.75
2019-01-02T04:32:59.074Z,5.80
2019-01-02T04:33:58.983Z,5.81
2019-01-02T04:34:58.917Z,5.75
2019-01-02T04:35:58.808Z,5.77
2019-01-02T04:36:58.736Z,5.83
2019-01-02T04:37:58.654Z,5.83
2019-01-02T04:38:58.555Z,5.88
2019-01-02T04:39:58.482Z,5.85
2019-01-02T04:40:58.394Z,5.87
2019-01-02T04:41:58.295Z,5.92
2019-01-02T04:42:58.210Z,5.81
2019-01-02T04:43:58.128Z,5.75
2019-01-02T04:44:58.069Z,5.81
2019-01-02T04:45:57.946Z,5.69
2019-01-02T04:46:57.868Z,5.80
2019-01-02T04:47:57.776Z,5.77
2019-01-02T04:48:57.702Z,5.84
2019-01-02T04:49:57.607Z,5.66
2019-01-02T04:50:57.530Z,5.62
2019-01-02T04:51:57.430Z,5.70
2019-01-02T04:52:57.354Z,5.80
2019-01-02T04:53:57.262Z,5.78
2019-01-02T04:54:57.189Z,5.78
2019-01-02T04:55:57.110Z,5.80
2019-01-02T04:56:57.040Z,5.75
2019-01-02T04:57:56.917Z,5.83
2019-01-02T04:58:56.839Z,5.81
2019-01-02T04:59:56.741Z,5.77
2019-01-02T05:00:56.680Z,5.81
2019-01-02T05:01:56.570Z,5.77
2019-01-02T05:02:56.489Z,5.69
2019-01-02T05:03:56.404Z,5.73
2019-01-02T05:04:56.369Z,5.78
2019-01-02T05:05:56.251Z,5.73
2019-01-02T05:06:56.140Z,5.65
2019-01-02T05:07:56.052Z,5.67
2019-01-02T05:08:55.971Z,5.74
2019-01-02T05:09:55.888Z,5.65
2019-01-02T05:10:55.809Z,5.73
2019-01-02T05:11:55.721Z,5.65
2019-01-02T05:12:55.625Z,5.67
2019-01-02T05:13:55.539Z,5.73
2019-01-02T05:14:55.454Z,5.80
2019-01-02T05:15:55.361Z,5.87
2019-01-02T05:16:55.291Z,5.80
2019-01-02T05:17:55.192Z,5.75
2019-01-02T05:18:55.108Z,5.70
2019-01-02T05:19:55.020Z,5.67
2019-01-02T05:20:54.939Z,5.67
2019-01-02T05:21:54.859Z,5.74
2019-01-02T05:22:54.762Z,5.73
2019-01-02T05:23:54.674Z,5.66
2019-01-02T05:24:54.589Z,5.66
2019-01-02T05:25:54.504Z,5.65
2019-01-02T05:26:54.457Z,5.60
2019-01-02T05:27:54.327Z,5.69
2019-01-02T05:28:54.252Z,5.66
2019-01-02T05:29:54.152Z,5.73
2019-01-02T05:30:54.079Z,5.70
2019-01-02T05:31:54.002Z,5.73
2019-01-02T05:32:53.931Z,5.69
2019-01-02T05:33:53.814Z,5.66
2019-01-02T05:34:53.725Z,5.74
2019-01-02T05:35:53.641Z,5.70
2019-01-02T05:36:53.552Z,5.69
2019-01-02T05:37:54.066Z,5.69
2019-01-02T05:38:53.373Z,5.63
2019-01-02T05:39:53.295Z,5.70
2019-01-02T05:40:53.241Z,5.65
2019-01-02T05:41:53.127Z,5.70
2019-01-02T05:42:53.068Z,5.67
2019-01-02T05:43:52.950Z,5.69
2019-01-02T05:44:52.862Z,5.65
2019-01-02T05:45:52.783Z,5.69
2019-01-02T05:46:52.698Z,5.65
2019-01-02T05:47:52.613Z,5.67
2019-01-02T05:48:52.524Z,5.70
2019-01-02T05:49:52.430Z,5.85
2019-01-02T05:50:52.337Z,5.83
2019-01-02T05:51:52.279Z,5.83
2019-01-02T05:52:52.192Z,5.81
2019-01-02T05:53:52.175Z,5.84
2019-01-02T05:54:52.007Z,5.77
2019-01-02T05:55:51.904Z,5.84
2019-01-02T05:56:51.832Z,5.67
2019-01-02T05:57:51.753Z,5.67
2019-01-02T05:58:51.671Z,5.65
2019-01-02T05:59:51.572Z,5.65
2019-01-02T06:00:51.485Z,5.65
2019-01-02T06:01:51.389Z,5.62
2019-01-02T06:02:52.389Z,5.67
2019-01-02T06:03:51.220Z,5.58
2019-01-02T06:04:51.131Z,5.65
2019-01-02T06:05:51.053Z,5.59
2019-01-02T06:06:50.957Z,5.70
2019-01-02T06:07:50.917Z,5.59
2019-01-02T06:08:50.932Z,5.55
2019-01-02T06:09:50.734Z,5.62
2019-01-02T06:10:50.611Z,5.62
2019-01-02T06:11:50.528Z,5.67
2019-01-02T06:12:50.466Z,5.66
2019-01-02T06:13:50.356Z,5.69
2019-01-02T06:14:50.269Z,5.65
2019-01-02T06:15:50.239Z,5.56
2019-01-02T06:16:50.092Z,5.62
2019-01-02T06:17:50.052Z,5.70
2019-01-02T06:18:49.992Z,5.58
2019-01-02T06:19:49.833Z,5.59
2019-01-02T06:20:49.746Z,5.66
2019-01-02T06:21:49.700Z,5.66
2019-01-02T06:22:49.599Z,5.60
2019-01-02T06:23:49.509Z,5.55
2019-01-02T06:24:49.405Z,5.56
2019-01-02T06:25:49.312Z,5.49
2019-01-02T06:26:49.230Z,5.47
2019-01-02T06:27:49.155Z,5.40
2019-01-02T06:28:49.084Z,5.27
2019-01-02T06:29:48.976Z,5.27
2019-01-02T06:30:48.991Z,5.26
2019-01-02T06:31:48.826Z,5.20
2019-01-02T06:32:48.714Z,5.23
2019-01-02T06:33:48.656Z,5.19
2019-01-02T06:34:48.594Z,5.33
2019-01-02T06:35:48.468Z,5.24
2019-01-02T06:36:48.371Z,5.30
2019-01-02T06:37:48.361Z,5.30
2019-01-02T06:38:48.207Z,5.40
2019-01-02T06:39:48.134Z,5.44
2019-01-02T06:40:48.028Z,5.49
2019-01-02T06:41:48.004Z,5.45
2019-01-02T06:42:47.844Z,5.49
2019-01-02T06:43:47.903Z,5.55
2019-01-02T06:44:47.694Z,5.45
2019-01-02T06:45:47.629Z,5.47
2019-01-02T06:46:47.495Z,5.42
2019-01-02T06:47:47.411Z,5.48
2019-01-02T06:48:47.344Z,5.49
2019-01-02T06:49:47.248Z,5.41
2019-01-02T06:50:47.158Z,5.45
2019-01-02T06:51:47.077Z,5.48
2019-01-02T06:52:46.989Z,5.45
2019-01-02T06:53:46.906Z,5.52
2019-01-02T06:54:46.814Z,5.47
2019-01-02T06:55:46.720Z,5.51
2019-01-02T06:56:46.635Z,5.48
2019-01-02T06:57:46.561Z,5.49
2019-01-02T06:58:46.474Z,5.47
2019-01-02T06:59:46.380Z,5.58
2019-01-02T07:00:46.297Z,5.52
2019-01-02T07:01:46.200Z,5.47
2019-01-02T07:02:46.116Z,5.51
2019-01-02T07:03:46.048Z,5.51
2019-01-02T07:04:45.943Z,5.51
2019-01-02T07:05:45.858Z,5.63
2019-01-02T07:06:45.778Z,5.56
2019-01-02T07:07:45.693Z,5.60
2019-01-02T07:08:45.636Z,5.60
2019-01-02T07:09:45.527Z,5.63
2019-01-02T07:10:45.427Z,5.56
2019-01-02T07:11:45.346Z,5.58
2019-01-02T07:12:45.263Z,5.65
2019-01-02T07:13:45.169Z,5.58
2019-01-02T07:14:45.105Z,5.66
2019-01-02T07:15:45.013Z,5.56
2019-01-02T07:16:44.907Z,5.56
2019-01-02T07:17:44.821Z,5.55
2019-01-02T07:18:44.739Z,5.60
2019-01-02T07:19:44.669Z,5.58
2019-01-02T07:20:44.562Z,5.58
2019-01-02T07:21:44.488Z,5.59
2019-01-02T07:22:44.396Z,5.58
2019-01-02T07:23:44.302Z,5.63
2019-01-02T07:24:44.236Z,5.63
2019-01-02T07:25:44.129Z,5.60
2019-01-02T07:26:44.044Z,5.75
2019-01-02T07:27:43.961Z,5.66
2019-01-02T07:28:43.871Z,5.70
2019-01-02T07:29:43.814Z,5.67
2019-01-02T07:30:43.699Z,5.59
2019-01-02T07:31:43.628Z,5.69
2019-01-02T07:32:43.523Z,5.62
2019-01-02T07:33:43.475Z,5.60
2019-01-02T07:34:43.377Z,5.60
2019-01-02T07:35:43.271Z,5.67
2019-01-02T07:36:43.178Z,5.69
2019-01-02T07:37:44.101Z,5.52
2019-01-02T07:38:43.006Z,5.55
2019-01-02T07:39:42.941Z,5.60
2019-01-02T07:40:42.840Z,5.66
2019-01-02T07:41:42.753Z,5.56
2019-01-02T07:42:42.663Z,5.62
2019-01-02T07:43:42.583Z,5.56
2019-01-02T07:44:42.498Z,5.58
2019-01-02T07:45:42.425Z,5.62
2019-01-02T07:46:42.327Z,5.59
2019-01-02T07:47:42.235Z,5.52
2019-01-02T07:48:42.148Z,5.55
2019-01-02T07:49:42.064Z,5.58
2019-01-02T07:50:41.994Z,5.63
2019-01-02T07:51:41.893Z,5.56
2019-01-02T07:52:41.815Z,5.56
2019-01-02T07:53:41.710Z,5.56
2019-01-02T07:54:41.634Z,5.56
2019-01-02T07:55:41.560Z,5.55
2019-01-02T07:56:41.785Z,5.60
2019-01-02T07:57:41.368Z,5.55
2019-01-02T07:58:41.281Z,5.65
2019-01-02T07:59:41.217Z,5.67
2019-01-02T08:00:41.129Z,5.59
2019-01-02T08:01:41.020Z,5.55
2019-01-02T08:02:40.937Z,5.60
2019-01-02T08:03:40.860Z,5.74
2019-01-02T08:04:40.760Z,5.66
2019-01-02T08:05:40.716Z,5.66
2019-01-02T08:06:40.595Z,5.62
2019-01-02T08:07:40.505Z,5.65
2019-01-02T08:08:40.429Z,5.70
2019-01-02T08:09:40.331Z,5.63
2019-01-02T08:10:40.243Z,5.63
2019-01-02T08:11:40.180Z,5.75
2019-01-02T08:12:40.075Z,5.73
2019-01-02T08:13:40.951Z,5.66
2019-01-02T08:14:39.924Z,5.74
2019-01-02T08:15:39.821Z,5.84
2019-01-02T08:16:39.751Z,5.75
2019-01-02T08:17:39.658Z,5.81
2019-01-02T08:18:39.558Z,5.80
2019-01-02T08:19:39.485Z,5.75
2019-01-02T08:20:39.397Z,5.81
2019-01-02T08:21:39.322Z,5.87
2019-01-02T08:22:39.210Z,5.70
2019-01-02T08:23:39.127Z,5.75
2019-01-02T08:24:39.043Z,5.80
2019-01-02T08:25:38.967Z,5.78
2019-01-02T08:26:38.880Z,5.81
2019-01-02T08:27:38.786Z,5.92
2019-01-02T08:28:38.698Z,5.85
2019-01-02T08:29:38.612Z,5.85
2019-01-02T08:30:38.524Z,5.83
2019-01-02T08:31:38.454Z,5.88
2019-01-02T08:32:38.694Z,5.87
2019-01-02T08:33:38.276Z,5.88
2019-01-02T08:34:38.175Z,5.87
2019-01-02T08:35:38.096Z,5.87
2019-01-02T08:36:38.025Z,5.92
2019-01-02T08:37:37.935Z,5.96
2019-01-02T08:38:37.837Z,6.01
2019-01-02T08:39:37.748Z,5.90
2019-01-02T08:40:37.668Z,5.98
2019-01-02T08:41:37.588Z,6.05
2019-01-02T08:42:37.489Z,6.14
2019-01-02T08:43:37.409Z,6.14
2019-01-02T08:44:37.321Z,6.13
2019-01-02T08:45:37.236Z,6.17
2019-01-02T08:46:37.170Z,6.17
2019-01-02T08:47:37.058Z,6.19
2019-01-02T08:48:36.977Z,6.14
2019-01-02T08:49:36.895Z,6.14
2019-01-02T08:50:36.801Z,6.16
2019-01-02T08:51:36.736Z,6.16
2019-01-02T08:52:36.629Z,6.14
2019-01-02T08:53:36.549Z,6.17
2019-01-02T08:54:36.457Z,6.17
2019-01-02T08:55:36.380Z,6.28
2019-01-02T08:56:36.306Z,6.24
2019-01-02T08:57:37.205Z,6.17
2019-01-02T08:58:36.116Z,6.14
2019-01-02T08:59:36.037Z,6.17
2019-01-02T09:00:35.942Z,6.17
2019-01-02T09:01:35.881Z,6.16
2019-01-02T09:02:35.785Z,6.17
2019-01-02T09:03:35.685Z,6.17
2019-01-02T09:04:35.609Z,6.17
2019-01-02T09:05:35.515Z,6.20
2019-01-02T09:06:35.429Z,6.14
2019-01-02T09:07:35.364Z,6.17
2019-01-02T09:08:35.261Z,6.17
2019-01-02T09:09:35.172Z,6.17
2019-01-02T09:10:35.091Z,6.19
2019-01-02T09:11:34.999Z,6.19
2019-01-02T09:12:34.936Z,6.21
2019-01-02T09:13:34.828Z,6.16
2019-01-02T09:14:34.749Z,6.19
2019-01-02T09:15:34.658Z,6.21
2019-01-02T09:16:34.577Z,6.20
2019-01-02T09:17:34.497Z,6.20
2019-01-02T09:18:34.399Z,6.21
2019-01-02T09:19:34.322Z,6.25
2019-01-02T09:20:34.228Z,6.24
2019-01-02T09:21:34.143Z,6.19
2019-01-02T09:22:34.076Z,6.21
2019-01-02T09:23:33.972Z,6.28
2019-01-02T09:24:33.883Z,6.27
2019-01-02T09:25:33.805Z,6.36
2019-01-02T09:26:33.716Z,6.38
2019-01-02T09:27:33.652Z,6.39
2019-01-02T09:28:33.549Z,6.45
2019-01-02T09:29:33.461Z,6.54
2019-01-02T09:30:33.373Z,6.53
2019-01-02T09:31:33.298Z,6.50
2019-01-02T09:32:33.202Z,6.54
2019-01-02T09:33:33.129Z,6.69
2019-01-02T09:34:33.032Z,6.54
2019-01-02T09:35:32.945Z,6.55
2019-01-02T09:36:32.858Z,6.64
2019-01-02T09:37:32.781Z,6.69
2019-01-02T09:38:32.698Z,6.54
2019-01-02T09:39:32.603Z,6.60
2019-01-02T09:40:33.551Z,6.64
2019-01-02T09:41:32.432Z,6.72
2019-01-02T09:42:32.345Z,6.72
2019-01-02T09:43:32.286Z,6.76
2019-01-02T09:44:32.173Z,6.93
2019-01-02T09:45:32.089Z,7.01
2019-01-02T09:46:32.085Z,7.26
2019-01-02T09:47:31.974Z,7.37
2019-01-02T09:48:31.849Z,7.34
2019-01-02T09:49:31.753Z,7.45
2019-01-02T09:50:31.665Z,7.34
2019-01-02T09:51:31.586Z,7.44
2019-01-02T09:52:31.493Z,7.33
2019-01-02T09:53:31.427Z,7.27
2019-01-02T09:54:31.330Z,7.26
2019-01-02T09:55:31.246Z,7.24
2019-01-02T09:56:31.155Z,7.27
2019-01-02T09:57:31.077Z,7.33
2019-01-02T09:58:31.005Z,7.21
2019-01-02T09:59:30.922Z,7.29
2019-01-02T10:00:30.815Z,7.26
2019-01-02T10:01:30.737Z,7.34
2019-01-02T10:02:30.645Z,7.24
2019-01-02T10:03:30.568Z,7.29
2019-01-02T10:04:30.492Z,7.26
2019-01-02T10:05:30.398Z,7.19
2019-01-02T10:06:30.306Z,7.05
2019-01-02T10:07:30.228Z,7.07
2019-01-02T10:08:30.142Z,6.97
2019-01-02T10:09:30.067Z,6.97
2019-01-02T10:10:29.979Z,6.83
2019-01-02T10:11:29.885Z,6.81
2019-01-02T10:12:29.798Z,6.81
2019-01-02T10:13:29.719Z,6.86
2019-01-02T10:14:29.644Z,6.93
2019-01-02T10:15:29.549Z,7.04
2019-01-02T10:16:29.459Z,7.29
2019-01-02T10:17:29.379Z,7.51
2019-01-02T10:18:29.289Z,7.74
2019-01-02T10:19:29.219Z,7.67
2019-01-02T10:20:29.127Z,7.73
2019-01-02T10:21:29.033Z,7.86
2019-01-02T10:22:28.955Z,7.77
2019-01-02T10:23:28.874Z,7.91
2019-01-02T10:24:28.816Z,7.82
2019-01-02T10:25:28.701Z,7.82
2019-01-02T10:26:28.609Z,7.58
2019-01-02T10:27:28.532Z,7.55
2019-01-02T10:28:28.440Z,7.44
2019-01-02T10:29:28.364Z,7.32
2019-01-02T10:30:28.280Z,7.26
2019-01-02T10:31:28.196Z,7.26
2019-01-02T10:32:28.100Z,7.32
2019-01-02T10:33:28.023Z,7.32
2019-01-02T10:34:27.931Z,7.26
2019-01-02T10:35:27.868Z,7.27
2019-01-02T10:36:27.760Z,7.27
2019-01-02T10:37:27.683Z,7.39
2019-01-02T10:38:27.590Z,7.26
2019-01-02T10:39:27.507Z,7.24
2019-01-02T10:40:27.442Z,7.30
2019-01-02T10:41:27.337Z,7.27
2019-01-02T10:42:27.256Z,7.11
2019-01-02T10:43:27.174Z,7.12
2019-01-02T10:44:27.086Z,7.19
2019-01-02T10:45:27.010Z,7.01
2019-01-02T10:46:26.918Z,7.01
2019-01-02T10:47:26.830Z,6.90
2019-01-02T10:48:26.762Z,6.91
2019-01-02T10:49:26.667Z,6.97
2019-01-02T10:50:26.596Z,7.05
2019-01-02T10:51:26.495Z,7.12
2019-01-02T10:52:26.404Z,7.16
2019-01-02T10:53:26.324Z,7.27
2019-01-02T10:54:26.234Z,7.24
2019-01-02T10:55:26.155Z,7.41
2019-01-02T10:56:26.080Z,7.37
2019-01-02T10:57:25.987Z,7.52
2019-01-02T10:58:25.892Z,7.51
2019-01-02T10:59:25.813Z,7.55
2019-01-02T11:00:25.731Z,7.60
2019-01-02T11:01:25.661Z,7.73
2019-01-02T11:02:25.555Z,7.71
2019-01-02T11:03:25.514Z,7.67
2019-01-02T11:04:25.392Z,7.47
2019-01-02T11:05:25.307Z,7.37
2019-01-02T11:06:25.229Z,7.32
2019-01-02T11:07:25.136Z,7.30
2019-01-02T11:08:25.051Z,7.26
2019-01-02T11:09:24.968Z,7.19
2019-01-02T11:10:24.877Z,7.19
2019-01-02T11:11:25.923Z,7.18
2019-01-02T11:12:24.709Z,7.14
2019-01-02T11:13:24.628Z,7.21
2019-01-02T11:14:24.547Z,7.15
2019-01-02T11:15:24.455Z,7.18
2019-01-02T11:16:24.392Z,7.14
2019-01-02T11:17:24.288Z,7.26
2019-01-02T11:18:24.200Z,7.26
2019-01-02T11:19:24.119Z,7.24
2019-01-02T11:20:24.030Z,7.27
2019-01-02T11:21:23.966Z,7.36
2019-01-02T11:22:23.859Z,7.36
2019-01-02T11:23:23.781Z,7.27
2019-01-02T11:24:23.690Z,7.19
2019-01-02T11:25:23.616Z,7.26
2019-01-02T11:26:23.533Z,7.18
2019-01-02T11:27:23.438Z,7.16
2019-01-02T11:28:23.350Z,7.23
2019-01-02T11:29:23.269Z,7.19
2019-01-02T11:30:23.182Z,7.08
2019-01-02T11:31:23.124Z,7.15
2019-01-02T11:32:23.009Z,7.18
2019-01-02T11:33:22.929Z,7.24
2019-01-02T11:34:22.839Z,7.34
2019-01-02T11:35:22.761Z,7.50
2019-01-02T11:36:22.674Z,7.55
2019-01-02T11:37:22.604Z,7.51
2019-01-02T11:38:22.499Z,7.50
2019-01-02T11:39:22.415Z,7.51
2019-01-02T11:40:22.339Z,7.55
2019-01-02T11:41:22.247Z,7.70
2019-01-02T11:42:22.172Z,7.85
2019-01-02T11:43:22.080Z,7.91
2019-01-02T11:44:21.990Z,8.00
2019-01-02T11:45:21.904Z,8.09
2019-01-02T11:46:21.829Z,8.02
2019-01-02T11:47:21.749Z,8.12
2019-01-02T11:48:21.656Z,8.13
2019-01-02T11:49:21.564Z,7.94
2019-01-02T11:50:21.483Z,8.00
2019-01-02T11:51:21.405Z,8.02
2019-01-02T11:52:21.326Z,8.02
2019-01-02T11:53:21.230Z,8.12
2019-01-02T11:54:21.148Z,8.28
2019-01-02T11:55:21.055Z,8.36
2019-01-02T11:56:20.978Z,8.37
2019-01-02T11:57:20.902Z,8.42
2019-01-02T11:58:20.824Z,8.54
2019-01-02T11:59:20.719Z,8.50
2019-01-02T12:00:20.645Z,8.50
2019-01-02T12:01:20.549Z,8.60
2019-01-02T12:02:20.471Z,8.58
2019-01-02T12:03:20.397Z,8.78
2019-01-02T12:04:20.297Z,8.88
2019-01-02T12:05:20.219Z,8.73
2019-01-02T12:06:20.128Z,8.63
2019-01-02T12:07:20.046Z,8.52
2019-01-02T12:08:19.979Z,8.47
2019-01-02T12:09:19.876Z,8.37
2019-01-02T12:10:19.790Z,8.34
2019-01-02T12:11:19.713Z,8.43
2019-01-02T12:12:19.623Z,8.45
2019-01-02T12:13:19.558Z,8.52
2019-01-02T12:14:19.453Z,8.47
2019-01-02T12:15:19.378Z,8.42
2019-01-02T12:16:19.284Z,8.37
2019-01-02T12:17:19.210Z,8.40
2019-01-02T12:18:19.132Z,8.54
2019-01-02T12:19:19.041Z,8.50
2019-01-02T12:20:18.955Z,8.40
2019-01-02T12:21:18.865Z,8.29
2019-01-02T12:22:18.789Z,8.37
2019-01-02T12:23:18.759Z,8.45
2019-01-02T12:24:18.613Z,8.43
2019-01-02T12:25:18.535Z,8.28
2019-01-02T12:26:18.444Z,8.36
2019-01-02T12:27:18.361Z,8.29
2019-01-02T12:28:18.282Z,8.34
2019-01-02T12:29:18.207Z,8.31
2019-01-02T12:30:18.109Z,8.25
2019-01-02T12:31:18.033Z,8.20
2019-01-02T12:32:17.941Z,8.17
2019-01-02T12:33:17.854Z,8.18
2019-01-02T12:34:17.793Z,8.24
2019-01-02T12:35:17.689Z,8.32
2019-01-02T12:36:17.609Z,8.21
2019-01-02T12:37:17.517Z,8.17
2019-01-02T12:38:17.621Z,8.03
2019-01-02T12:39:17.364Z,8.07
2019-01-02T12:40:17.271Z,7.95
2019-01-02T12:41:17.180Z,7.91
2019-01-02T12:42:17.105Z,7.91
2019-01-02T12:43:17.013Z,7.94
2019-01-02T12:44:16.948Z,7.94
2019-01-02T12:45:16.845Z,7.91
2019-01-02T12:46:16.769Z,7.92
2019-01-02T12:47:16.675Z,8.00
2019-01-02T12:48:16.596Z,7.91
2019-01-02T12:49:16.519Z,7.84
2019-01-02T12:50:16.436Z,7.95
2019-01-02T12:51:16.337Z,7.96
2019-01-02T12:52:16.260Z,8.04
2019-01-02T12:53:16.168Z,8.18
2019-01-02T12:54:16.106Z,8.42
2019-01-02T12:55:15.998Z,8.49
2019-01-02T12:56:15.915Z,8.73
2019-01-02T12:57:15.837Z,8.80
2019-01-02T12:58:15.763Z,8.85
2019-01-02T12:59:15.685Z,8.93
2019-01-02T13:00:15.585Z,8.86
2019-01-02T13:01:15.490Z,8.86
2019-01-02T13:02:15.408Z,8.93
2019-01-02T13:03:15.329Z,9.04
2019-01-02T13:04:15.240Z,9.01
2019-01-02T13:05:15.166Z,8.93
2019-01-02T13:06:15.075Z,8.98
2019-01-02T13:07:14.988Z,8.96
2019-01-02T13:08:14.903Z,8.98
2019-01-02T13:09:14.827Z,8.96
2019-01-02T13:10:14.752Z,9.13
2019-01-02T13:11:14.652Z,9.27
2019-01-02T13:12:14.569Z,9.15
2019-01-02T13:13:14.489Z,9.04
2019-01-02T13:14:14.398Z,8.97
2019-01-02T13:15:14.329Z,8.80
2019-01-02T13:16:14.240Z,8.60
2019-01-02T13:17:14.155Z,8.40